SABESAME

Guest
Details From SABE - Aeroparque Jorge Newbery
To SAME - El Plumerillo
Flight Number -
Tags Generated
Created
Modified
Stats Distance 529 nm / 980 km
Max Altitude 0 ft / 0 m
Waypoints 4
Social Downloads 4
Likes 0
Share VATSIM

Download

Looking for another format? Having issues loading an existing format? Contact us
Advertisement - Login to hide

Notes

Generated

Route

SABE ALDOR DOZ14 SAME

ID Type Via Altitude Latitude Longitude Leg Dist Tot Dist Heading (true) Name
O SABE APT - 0 ft / 0 m -34.55416˚ -58.42526˚ - 0 nm - -
ALDOR FIX - 0 ft / 0 m -33.49972˚ -63.91833˚ 280 nm 280 nm 281° / 285° -
DOZ14 FIX - 0 ft / 0 m -32.84388˚ -68.51407˚ 234 nm 514 nm 278° / 281° -
O SAME APT - 0 ft / 0 m -32.81817˚ -68.79271˚ 14 nm 529 nm 276° / 276° -

Altitude Profile

Advertisement - Login to hide

Weather


0- 5 10 15 20 25 30 35+ Temperature / ° C

Clouds and Precipitation
Forecast for 2018-05-27 12:00 UTC. Updated an hour ago

Ground ~20,000 ft ~40,000 ft Winds

SABE

Details ICAO SABE (AEP)
Name Aeroparque Jorge Newbery
Region Argentina
Timezone Unknown (UTC+0.0)
Stats Elevation 17 ft / 5 m (AMSL)
Location -34.559414° -58.415749°
Runways 1
Magnetic Variation 9.055° W

METAR

SABE 271200Z 31004KT CAVOK 16/14 Q1018 NOSIG

Decode

TAF

TAF SABE 270500Z 2706/2806 07005KT CAVOK TX21/2719Z TN15/2710Z BECMG 2708/2710 34005KT BECMG 2716/2718 09010KT 9999 SCT020 BKN200 BECMG 2723/2802 02010KT 9999 BKN025 OVC040

Decode

Departure Runways

ID Width Length Bearing (true) Bearing (mag) Surface Threshold Offset Overrun Length
13 131 ft / 40 m 6,882 ft / 2,098 m 123.87° 132.93° Concrete 0 ft / 0 m 791 ft / 241 m
31 131 ft / 40 m 6,882 ft / 2,098 m 303.86° 312.92° Concrete 991 ft / 302 m 0 ft / 0 m

SAME

Details ICAO SAME (MDZ)
Name El Plumerillo
Region Argentina
Timezone America/Argentina/Mendoza (UTC-3.0)
Stats Elevation 2,310 ft / 704 m (AMSL)
Location -32.831753° -68.792941°
Runways 1
Magnetic Variation 0.454° W

METAR

SAME 271200Z 00000KT CAVOK 10/06 Q1016

Decode

TAF

TAF SAME 270500Z 2706/2806 23005KT 9999 FEW035 TX24/2720Z TN08/2710Z BECMG 2714/2718 05010KT 9999 SCT040

Decode

Destination Runways

ID Width Length Bearing (true) Bearing (mag) Surface Threshold Offset Overrun Length
18 177 ft / 54 m 9,915 ft / 3,022 m 180.83° 181.28° Concrete 381 ft / 116 m 0 ft / 0 m
36 177 ft / 54 m 9,915 ft / 3,022 m 0.83° 1.28° Concrete 361 ft / 110 m 0 ft / 0 m

Approach Navaids

Runway Type Ident Frequency Range Bearing (true) Bearing (mag) Slope Elevation
36 Localiser DO 109.90 MHz 18 nm / 33 km 0.90° 1.36° - 2,310 ft / 704 m (AMSL)
36 Glidescope DO 109.90 MHz 10 nm / 19 km 0.83° 1.28° 3.00° 2,311 ft / 704 m (AMSL)
36 DME DO 109.90 MHz 18 nm / 33 km - - - 2,311 ft / 704 m (AMSL)

Popular Alternatives